sensor_id;sensor_type;location;lat;lon;timestamp;temperature;humidity
46458;DHT22;32155;54.076;12.092;2023-12-22T00:01:17;5.40;99.90
46458;DHT22;32155;54.076;12.092;2023-12-22T00:03:42;5.20;99.90
46458;DHT22;32155;54.076;12.092;2023-12-22T00:06:08;5.10;99.90
46458;DHT22;32155;54.076;12.092;2023-12-22T00:08:36;5.10;99.90
46458;DHT22;32155;54.076;12.092;2023-12-22T00:11:01;5.10;99.90
46458;DHT22;32155;54.076;12.092;2023-12-22T00:13:27;5.10;99.90
46458;DHT22;32155;54.076;12.092;2023-12-22T00:15:53;5.10;99.90
46458;DHT22;32155;54.076;12.092;2023-12-22T00:18:18;5.10;99.90
46458;DHT22;32155;54.076;12.092;2023-12-22T00:20:44;5.20;99.90
46458;DHT22;32155;54.076;12.092;2023-12-22T00:23:09;5.10;99.90
46458;DHT22;32155;54.076;12.092;2023-12-22T00:25:35;5.10;99.90
46458;DHT22;32155;54.076;12.092;2023-12-22T00:28:00;5.10;99.90
46458;DHT22;32155;54.076;12.092;2023-12-22T00:30:26;5.00;99.90
46458;DHT22;32155;54.076;12.092;2023-12-22T00:32:51;5.00;99.90
46458;DHT22;32155;54.076;12.092;2023-12-22T00:35:17;4.90;99.90
46458;DHT22;32155;54.076;12.092;2023-12-22T00:37:44;4.80;99.90
46458;DHT22;32155;54.076;12.092;2023-12-22T00:40:10;4.80;99.90
46458;DHT22;32155;54.076;12.092;2023-12-22T00:42:36;4.70;99.90
46458;DHT22;32155;54.076;12.092;2023-12-22T00:45:04;4.60;99.90
46458;DHT22;32155;54.076;12.092;2023-12-22T00:47:29;4.60;99.90
46458;DHT22;32155;54.076;12.092;2023-12-22T00:49:55;4.50;99.90
46458;DHT22;32155;54.076;12.092;2023-12-22T00:52:20;4.50;99.90
46458;DHT22;32155;54.076;12.092;2023-12-22T00:54:46;4.50;99.90
46458;DHT22;32155;54.076;12.092;2023-12-22T00:57:12;4.50;99.90
46458;DHT22;32155;54.076;12.092;2023-12-22T00:59:38;4.50;99.90
46458;DHT22;32155;54.076;12.092;2023-12-22T01:02:07;4.50;99.90
46458;DHT22;32155;54.076;12.092;2023-12-22T01:04:33;4.50;99.90
46458;DHT22;32155;54.076;12.092;2023-12-22T01:06:58;4.50;99.90
46458;DHT22;32155;54.076;12.092;2023-12-22T01:09:24;4.50;99.90
46458;DHT22;32155;54.076;12.092;2023-12-22T01:11:52;4.40;99.90
46458;DHT22;32155;54.076;12.092;2023-12-22T01:14:17;4.40;99.90
46458;DHT22;32155;54.076;12.092;2023-12-22T01:16:43;4.50;99.90
46458;DHT22;32155;54.076;12.092;2023-12-22T01:19:08;4.50;99.90
46458;DHT22;32155;54.076;12.092;2023-12-22T01:21:34;4.50;99.90
46458;DHT22;32155;54.076;12.092;2023-12-22T01:23:59;4.40;99.90
46458;DHT22;32155;54.076;12.092;2023-12-22T01:26:25;4.40;99.90
46458;DHT22;32155;54.076;12.092;2023-12-22T01:28:50;4.40;99.90
46458;DHT22;32155;54.076;12.092;2023-12-22T01:31:16;4.40;99.90
46458;DHT22;32155;54.076;12.092;2023-12-22T01:33:41;4.50;99.90
46458;DHT22;32155;54.076;12.092;2023-12-22T01:36:07;4.50;99.90
46458;DHT22;32155;54.076;12.092;2023-12-22T01:38:33;4.50;99.90
46458;DHT22;32155;54.076;12.092;2023-12-22T01:40:58;4.50;99.90
46458;DHT22;32155;54.076;12.092;2023-12-22T01:43:24;4.40;99.90
46458;DHT22;32155;54.076;12.092;2023-12-22T01:45:55;4.60;99.90
46458;DHT22;32155;54.076;12.092;2023-12-22T01:48:23;4.50;99.90
46458;DHT22;32155;54.076;12.092;2023-12-22T01:50:49;4.60;99.90
46458;DHT22;32155;54.076;12.092;2023-12-22T01:53:16;4.60;99.90
46458;DHT22;32155;54.076;12.092;2023-12-22T01:55:41;4.60;99.90
46458;DHT22;32155;54.076;12.092;2023-12-22T01:58:07;4.50;99.90
46458;DHT22;32155;54.076;12.092;2023-12-22T02:00:33;4.50;99.90
46458;DHT22;32155;54.076;12.092;2023-12-22T02:02:59;4.60;99.90
46458;DHT22;32155;54.076;12.092;2023-12-22T02:05:24;4.60;99.90
46458;DHT22;32155;54.076;12.092;2023-12-22T02:07:50;4.60;99.90
46458;DHT22;32155;54.076;12.092;2023-12-22T02:10:15;4.60;99.90
46458;DHT22;32155;54.076;12.092;2023-12-22T02:12:41;4.60;99.90
46458;DHT22;32155;54.076;12.092;2023-12-22T02:15:07;4.60;99.90
46458;DHT22;32155;54.076;12.092;2023-12-22T02:17:43;4.70;99.90
46458;DHT22;32155;54.076;12.092;2023-12-22T02:20:10;4.70;99.90
46458;DHT22;32155;54.076;12.092;2023-12-22T02:22:36;4.60;99.90
46458;DHT22;32155;54.076;12.092;2023-12-22T02:25:02;4.60;99.90
46458;DHT22;32155;54.076;12.092;2023-12-22T02:30:06;4.60;99.90
46458;DHT22;32155;54.076;12.092;2023-12-22T02:32:34;4.50;99.90
46458;DHT22;32155;54.076;12.092;2023-12-22T02:35:00;4.50;99.90
46458;DHT22;32155;54.076;12.092;2023-12-22T02:37:28;4.50;99.90
46458;DHT22;32155;54.076;12.092;2023-12-22T02:39:54;4.50;99.90
46458;DHT22;32155;54.076;12.092;2023-12-22T02:42:20;4.40;99.90
46458;DHT22;32155;54.076;12.092;2023-12-22T02:44:48;4.40;99.90
46458;DHT22;32155;54.076;12.092;2023-12-22T02:47:14;4.40;99.90
46458;DHT22;32155;54.076;12.092;2023-12-22T02:49:39;4.60;99.90
46458;DHT22;32155;54.076;12.092;2023-12-22T02:52:05;4.70;99.90
46458;DHT22;32155;54.076;12.092;2023-12-22T02:54:30;4.80;99.90
46458;DHT22;32155;54.076;12.092;2023-12-22T02:56:58;4.90;99.90
46458;DHT22;32155;54.076;12.092;2023-12-22T02:59:25;4.90;99.90
46458;DHT22;32155;54.076;12.092;2023-12-22T03:01:52;5.00;99.90
46458;DHT22;32155;54.076;12.092;2023-12-22T03:04:18;5.00;99.90
46458;DHT22;32155;54.076;12.092;2023-12-22T03:06:43;5.00;99.90
46458;DHT22;32155;54.076;12.092;2023-12-22T03:09:09;5.00;99.90
46458;DHT22;32155;54.076;12.092;2023-12-22T03:11:35;5.00;99.90
46458;DHT22;32155;54.076;12.092;2023-12-22T03:14:00;5.00;99.90
46458;DHT22;32155;54.076;12.092;2023-12-22T03:16:26;5.00;99.90
46458;DHT22;32155;54.076;12.092;2023-12-22T03:18:51;4.90;99.90
46458;DHT22;32155;54.076;12.092;2023-12-22T03:21:17;5.00;99.90
46458;DHT22;32155;54.076;12.092;2023-12-22T03:23:44;5.00;99.90
46458;DHT22;32155;54.076;12.092;2023-12-22T03:26:09;5.10;99.90
46458;DHT22;32155;54.076;12.092;2023-12-22T03:28:35;5.20;99.90
46458;DHT22;32155;54.076;12.092;2023-12-22T03:31:00;5.20;99.90
46458;DHT22;32155;54.076;12.092;2023-12-22T03:33:26;5.20;99.90
46458;DHT22;32155;54.076;12.092;2023-12-22T03:35:51;5.20;99.90
46458;DHT22;32155;54.076;12.092;2023-12-22T03:38:17;5.20;99.90
46458;DHT22;32155;54.076;12.092;2023-12-22T03:40:42;5.20;99.90
46458;DHT22;32155;54.076;12.092;2023-12-22T03:43:08;5.20;99.90
46458;DHT22;32155;54.076;12.092;2023-12-22T03:45:33;5.10;99.90
46458;DHT22;32155;54.076;12.092;2023-12-22T03:47:59;5.20;99.90
46458;DHT22;32155;54.076;12.092;2023-12-22T03:50:24;5.20;99.90
46458;DHT22;32155;54.076;12.092;2023-12-22T03:52:50;5.20;99.90
46458;DHT22;32155;54.076;12.092;2023-12-22T03:55:15;5.20;99.90
46458;DHT22;32155;54.076;12.092;2023-12-22T03:57:41;5.20;99.90
46458;DHT22;32155;54.076;12.092;2023-12-22T04:00:06;5.10;99.90
46458;DHT22;32155;54.076;12.092;2023-12-22T04:02:32;5.10;99.90
46458;DHT22;32155;54.076;12.092;2023-12-22T04:04:58;5.10;99.90
46458;DHT22;32155;54.076;12.092;2023-12-22T04:07:23;5.00;99.90
46458;DHT22;32155;54.076;12.092;2023-12-22T04:09:49;4.90;99.90
46458;DHT22;32155;54.076;12.092;2023-12-22T04:12:14;4.90;99.90
46458;DHT22;32155;54.076;12.092;2023-12-22T04:14:40;4.70;99.90
46458;DHT22;32155;54.076;12.092;2023-12-22T04:17:05;4.50;99.90
46458;DHT22;32155;54.076;12.092;2023-12-22T04:19:31;4.40;99.90
46458;DHT22;32155;54.076;12.092;2023-12-22T04:21:56;4.20;99.90
46458;DHT22;32155;54.076;12.092;2023-12-22T04:24:24;4.20;99.90
46458;DHT22;32155;54.076;12.092;2023-12-22T04:26:50;4.20;99.90
46458;DHT22;32155;54.076;12.092;2023-12-22T04:29:15;4.10;99.90
46458;DHT22;32155;54.076;12.092;2023-12-22T04:31:41;4.10;99.90
46458;DHT22;32155;54.076;12.092;2023-12-22T04:34:07;4.10;99.90
46458;DHT22;32155;54.076;12.092;2023-12-22T04:36:35;4.00;99.90
46458;DHT22;32155;54.076;12.092;2023-12-22T04:39:00;4.00;99.90
46458;DHT22;32155;54.076;12.092;2023-12-22T04:41:26;4.00;99.90
46458;DHT22;32155;54.076;12.092;2023-12-22T04:43:51;3.90;99.90
46458;DHT22;32155;54.076;12.092;2023-12-22T04:46:17;3.80;99.90
46458;DHT22;32155;54.076;12.092;2023-12-22T04:48:42;3.80;99.90
46458;DHT22;32155;54.076;12.092;2023-12-22T04:51:08;3.80;99.90
46458;DHT22;32155;54.076;12.092;2023-12-22T04:53:33;3.80;99.90
46458;DHT22;32155;54.076;12.092;2023-12-22T04:55:59;3.70;99.90
46458;DHT22;32155;54.076;12.092;2023-12-22T04:58:24;3.70;99.90
46458;DHT22;32155;54.076;12.092;2023-12-22T05:00:50;3.70;99.90
46458;DHT22;32155;54.076;12.092;2023-12-22T05:03:15;3.60;99.90
46458;DHT22;32155;54.076;12.092;2023-12-22T05:05:41;3.70;99.90
46458;DHT22;32155;54.076;12.092;2023-12-22T05:08:09;3.70;99.90
46458;DHT22;32155;54.076;12.092;2023-12-22T05:10:34;3.60;99.90
46458;DHT22;32155;54.076;12.092;2023-12-22T05:13:00;3.50;99.90
46458;DHT22;32155;54.076;12.092;2023-12-22T05:15:25;3.60;99.90
46458;DHT22;32155;54.076;12.092;2023-12-22T05:17:52;3.50;99.90
46458;DHT22;32155;54.076;12.092;2023-12-22T05:20:17;3.50;99.90
46458;DHT22;32155;54.076;12.092;2023-12-22T05:22:43;3.50;99.90
46458;DHT22;32155;54.076;12.092;2023-12-22T05:25:09;3.40;99.90
46458;DHT22;32155;54.076;12.092;2023-12-22T05:27:38;3.40;99.90
46458;DHT22;32155;54.076;12.092;2023-12-22T05:30:04;3.40;99.90
46458;DHT22;32155;54.076;12.092;2023-12-22T05:32:30;3.50;99.90
46458;DHT22;32155;54.076;12.092;2023-12-22T05:34:58;3.60;99.90
46458;DHT22;32155;54.076;12.092;2023-12-22T05:37:24;3.60;99.90
46458;DHT22;32155;54.076;12.092;2023-12-22T05:39:49;3.60;99.90
46458;DHT22;32155;54.076;12.092;2023-12-22T05:42:15;3.70;99.90
46458;DHT22;32155;54.076;12.092;2023-12-22T05:44:40;3.80;99.90
46458;DHT22;32155;54.076;12.092;2023-12-22T05:47:06;3.90;99.90
46458;DHT22;32155;54.076;12.092;2023-12-22T05:49:31;4.00;99.90
46458;DHT22;32155;54.076;12.092;2023-12-22T05:51:57;4.00;99.90
46458;DHT22;32155;54.076;12.092;2023-12-22T05:54:22;4.20;99.90
46458;DHT22;32155;54.076;12.092;2023-12-22T05:56:50;4.30;99.90
46458;DHT22;32155;54.076;12.092;2023-12-22T05:59:17;4.40;99.90
46458;DHT22;32155;54.076;12.092;2023-12-22T06:01:42;4.40;99.90
46458;DHT22;32155;54.076;12.092;2023-12-22T06:04:08;4.50;99.90
46458;DHT22;32155;54.076;12.092;2023-12-22T06:06:34;4.50;99.90
46458;DHT22;32155;54.076;12.092;2023-12-22T06:09:01;4.60;99.90
46458;DHT22;32155;54.076;12.092;2023-12-22T06:11:29;4.70;99.90
46458;DHT22;32155;54.076;12.092;2023-12-22T06:13:56;4.70;99.90
46458;DHT22;32155;54.076;12.092;2023-12-22T06:16:21;4.70;99.90
46458;DHT22;32155;54.076;12.092;2023-12-22T06:18:47;4.80;99.90
46458;DHT22;32155;54.076;12.092;2023-12-22T06:21:15;4.80;99.90
46458;DHT22;32155;54.076;12.092;2023-12-22T06:23:40;4.80;99.90
46458;DHT22;32155;54.076;12.092;2023-12-22T06:26:12;4.80;99.90
46458;DHT22;32155;54.076;12.092;2023-12-22T06:28:37;4.80;99.90
46458;DHT22;32155;54.076;12.092;2023-12-22T06:31:08;4.70;99.90
46458;DHT22;32155;54.076;12.092;2023-12-22T06:33:34;4.80;99.90
46458;DHT22;32155;54.076;12.092;2023-12-22T06:35:59;4.80;99.90
46458;DHT22;32155;54.076;12.092;2023-12-22T06:38:25;4.80;99.90
46458;DHT22;32155;54.076;12.092;2023-12-22T06:40:50;4.80;99.90
46458;DHT22;32155;54.076;12.092;2023-12-22T06:43:16;4.80;99.90
46458;DHT22;32155;54.076;12.092;2023-12-22T06:45:44;4.90;99.90
46458;DHT22;32155;54.076;12.092;2023-12-22T06:48:09;5.00;99.90
46458;DHT22;32155;54.076;12.092;2023-12-22T06:50:35;5.00;99.90
46458;DHT22;32155;54.076;12.092;2023-12-22T06:53:02;5.00;99.90
46458;DHT22;32155;54.076;12.092;2023-12-22T06:55:30;5.00;99.90
46458;DHT22;32155;54.076;12.092;2023-12-22T06:57:55;5.00;99.90
46458;DHT22;32155;54.076;12.092;2023-12-22T07:00:21;5.00;99.90
46458;DHT22;32155;54.076;12.092;2023-12-22T07:02:47;5.00;99.90
46458;DHT22;32155;54.076;12.092;2023-12-22T07:05:33;5.00;99.90
46458;DHT22;32155;54.076;12.092;2023-12-22T07:07:59;5.00;99.90
46458;DHT22;32155;54.076;12.092;2023-12-22T07:10:27;5.00;99.90
46458;DHT22;32155;54.076;12.092;2023-12-22T07:12:52;4.90;99.90
46458;DHT22;32155;54.076;12.092;2023-12-22T07:15:18;5.00;99.90
46458;DHT22;32155;54.076;12.092;2023-12-22T07:17:43;5.00;99.90
46458;DHT22;32155;54.076;12.092;2023-12-22T07:20:09;5.00;99.90
46458;DHT22;32155;54.076;12.092;2023-12-22T07:22:35;5.00;99.90
46458;DHT22;32155;54.076;12.092;2023-12-22T07:25:00;5.10;99.90
46458;DHT22;32155;54.076;12.092;2023-12-22T07:27:26;5.00;99.90
46458;DHT22;32155;54.076;12.092;2023-12-22T07:29:51;5.00;99.90
46458;DHT22;32155;54.076;12.092;2023-12-22T07:32:17;5.10;99.90
46458;DHT22;32155;54.076;12.092;2023-12-22T07:34:42;5.10;99.90
46458;DHT22;32155;54.076;12.092;2023-12-22T07:37:08;5.10;99.90
46458;DHT22;32155;54.076;12.092;2023-12-22T07:39:34;5.10;99.90
46458;DHT22;32155;54.076;12.092;2023-12-22T07:42:02;5.10;99.90
46458;DHT22;32155;54.076;12.092;2023-12-22T07:44:27;5.10;99.90
46458;DHT22;32155;54.076;12.092;2023-12-22T07:46:59;5.10;99.90
46458;DHT22;32155;54.076;12.092;2023-12-22T07:49:25;5.10;99.90
46458;DHT22;32155;54.076;12.092;2023-12-22T07:51:52;5.10;99.90
46458;DHT22;32155;54.076;12.092;2023-12-22T07:54:17;5.10;99.90
46458;DHT22;32155;54.076;12.092;2023-12-22T07:56:43;5.10;99.90
46458;DHT22;32155;54.076;12.092;2023-12-22T07:59:09;5.10;99.90
46458;DHT22;32155;54.076;12.092;2023-12-22T08:01:34;5.10;99.90
46458;DHT22;32155;54.076;12.092;2023-12-22T08:04:00;5.10;99.90
46458;DHT22;32155;54.076;12.092;2023-12-22T08:06:25;5.10;99.90
46458;DHT22;32155;54.076;12.092;2023-12-22T08:08:53;5.00;99.90
46458;DHT22;32155;54.076;12.092;2023-12-22T08:11:20;5.00;99.90
46458;DHT22;32155;54.076;12.092;2023-12-22T08:13:47;5.00;99.90
46458;DHT22;32155;54.076;12.092;2023-12-22T08:16:13;5.00;99.90
46458;DHT22;32155;54.076;12.092;2023-12-22T08:18:38;4.90;99.90
46458;DHT22;32155;54.076;12.092;2023-12-22T08:21:06;4.90;99.90
46458;DHT22;32155;54.076;12.092;2023-12-22T08:23:31;4.90;99.90
46458;DHT22;32155;54.076;12.092;2023-12-22T08:25:57;4.90;99.90
46458;DHT22;32155;54.076;12.092;2023-12-22T08:28:23;4.90;99.90
46458;DHT22;32155;54.076;12.092;2023-12-22T08:30:51;4.90;99.90
46458;DHT22;32155;54.076;12.092;2023-12-22T08:33:17;4.90;99.90
46458;DHT22;32155;54.076;12.092;2023-12-22T08:35:45;5.00;99.90
46458;DHT22;32155;54.076;12.092;2023-12-22T08:38:11;5.00;99.90
46458;DHT22;32155;54.076;12.092;2023-12-22T08:40:38;5.10;99.90
46458;DHT22;32155;54.076;12.092;2023-12-22T08:43:04;5.10;99.90
46458;DHT22;32155;54.076;12.092;2023-12-22T08:45:31;5.20;99.90
46458;DHT22;32155;54.076;12.092;2023-12-22T08:47:57;5.20;99.90
46458;DHT22;32155;54.076;12.092;2023-12-22T08:50:22;5.30;99.90
46458;DHT22;32155;54.076;12.092;2023-12-22T08:52:48;5.30;99.90
46458;DHT22;32155;54.076;12.092;2023-12-22T08:55:13;5.40;99.90
46458;DHT22;32155;54.076;12.092;2023-12-22T08:57:39;5.30;99.90
46458;DHT22;32155;54.076;12.092;2023-12-22T09:00:05;5.30;99.90
46458;DHT22;32155;54.076;12.092;2023-12-22T09:02:33;5.30;99.90
46458;DHT22;32155;54.076;12.092;2023-12-22T09:04:58;5.20;99.90
46458;DHT22;32155;54.076;12.092;2023-12-22T09:07:24;5.30;99.90
46458;DHT22;32155;54.076;12.092;2023-12-22T09:09:50;5.30;99.90
46458;DHT22;32155;54.076;12.092;2023-12-22T09:12:15;5.30;99.90
46458;DHT22;32155;54.076;12.092;2023-12-22T09:14:41;5.30;99.90
46458;DHT22;32155;54.076;12.092;2023-12-22T09:17:07;5.40;99.90
46458;DHT22;32155;54.076;12.092;2023-12-22T09:19:35;5.40;99.90
46458;DHT22;32155;54.076;12.092;2023-12-22T09:22:04;5.40;99.90
46458;DHT22;32155;54.076;12.092;2023-12-22T09:24:29;5.40;99.90
46458;DHT22;32155;54.076;12.092;2023-12-22T09:26:55;5.60;99.90
46458;DHT22;32155;54.076;12.092;2023-12-22T09:31:54;5.80;99.90
46458;DHT22;32155;54.076;12.092;2023-12-22T09:34:19;5.90;99.90
46458;DHT22;32155;54.076;12.092;2023-12-22T09:36:45;6.00;99.90
46458;DHT22;32155;54.076;12.092;2023-12-22T09:51:42;5.90;99.90
46458;DHT22;32155;54.076;12.092;2023-12-22T09:57:41;7.10;99.90
46458;DHT22;32155;54.076;12.092;2023-12-22T10:09:31;8.50;99.90
46458;DHT22;32155;54.076;12.092;2023-12-22T10:12:35;9.40;99.90
46458;DHT22;32155;54.076;12.092;2023-12-22T10:36:23;12.80;99.90
46458;DHT22;32155;54.076;12.092;2023-12-22T10:38:50;14.50;99.90
46458;DHT22;32155;54.076;12.092;2023-12-22T10:41:16;14.40;99.90
46458;DHT22;32155;54.076;12.092;2023-12-22T10:47:29;14.10;99.90
46458;DHT22;32155;54.076;12.092;2023-12-22T10:53:41;14.80;99.90
46458;DHT22;32155;54.076;12.092;2023-12-22T10:56:31;13.40;99.90
46458;DHT22;32155;54.076;12.092;2023-12-22T12:28:03;12.30;99.90
46458;DHT22;32155;54.076;12.092;2023-12-22T13:07:32;13.30;99.90
46458;DHT22;32155;54.076;12.092;2023-12-22T13:19:07;12.30;99.90
46458;DHT22;32155;54.076;12.092;2023-12-22T13:22:17;12.20;99.90
46458;DHT22;32155;54.076;12.092;2023-12-22T13:28:41;11.70;99.90
46458;DHT22;32155;54.076;12.092;2023-12-22T13:41:09;10.70;99.90
46458;DHT22;32155;54.076;12.092;2023-12-22T13:44:30;11.40;99.90
46458;DHT22;32155;54.076;12.092;2023-12-22T13:47:01;10.90;99.90
46458;DHT22;32155;54.076;12.092;2023-12-22T13:52:31;10.20;99.90
46458;DHT22;32155;54.076;12.092;2023-12-22T13:58:47;8.00;99.90
46458;DHT22;32155;54.076;12.092;2023-12-22T14:28:29;5.60;99.90
46458;DHT22;32155;54.076;12.092;2023-12-22T14:30:54;5.50;99.90
46458;DHT22;32155;54.076;12.092;2023-12-22T14:33:20;5.40;99.90
46458;DHT22;32155;54.076;12.092;2023-12-22T14:35:46;5.30;99.90
46458;DHT22;32155;54.076;12.092;2023-12-22T14:38:11;5.00;99.90
46458;DHT22;32155;54.076;12.092;2023-12-22T14:40:39;4.90;99.90
46458;DHT22;32155;54.076;12.092;2023-12-22T14:43:05;4.80;99.90
46458;DHT22;32155;54.076;12.092;2023-12-22T14:45:31;4.70;99.90
46458;DHT22;32155;54.076;12.092;2023-12-22T14:47:57;4.70;99.90
46458;DHT22;32155;54.076;12.092;2023-12-22T14:50:34;4.60;99.90
46458;DHT22;32155;54.076;12.092;2023-12-22T14:53:00;4.50;99.90
46458;DHT22;32155;54.076;12.092;2023-12-22T14:55:27;4.40;99.90
46458;DHT22;32155;54.076;12.092;2023-12-22T14:58:08;4.30;99.90
46458;DHT22;32155;54.076;12.092;2023-12-22T15:03:04;4.10;99.90
46458;DHT22;32155;54.076;12.092;2023-12-22T15:05:29;4.00;99.90
46458;DHT22;32155;54.076;12.092;2023-12-22T15:07:57;4.00;99.90
46458;DHT22;32155;54.076;12.092;2023-12-22T15:10:23;4.00;99.90
46458;DHT22;32155;54.076;12.092;2023-12-22T15:12:48;3.90;99.90
46458;DHT22;32155;54.076;12.092;2023-12-22T15:15:14;3.90;99.90
46458;DHT22;32155;54.076;12.092;2023-12-22T15:17:40;3.80;99.90
46458;DHT22;32155;54.076;12.092;2023-12-22T15:20:05;3.80;99.90
46458;DHT22;32155;54.076;12.092;2023-12-22T15:22:35;3.70;99.90
46458;DHT22;32155;54.076;12.092;2023-12-22T15:25:03;3.70;99.90
46458;DHT22;32155;54.076;12.092;2023-12-22T15:27:29;3.70;99.90
46458;DHT22;32155;54.076;12.092;2023-12-22T15:29:55;3.70;99.90
46458;DHT22;32155;54.076;12.092;2023-12-22T15:32:21;3.80;99.90
46458;DHT22;32155;54.076;12.092;2023-12-22T15:34:46;3.90;99.90
46458;DHT22;32155;54.076;12.092;2023-12-22T15:37:12;3.90;99.90
46458;DHT22;32155;54.076;12.092;2023-12-22T15:39:38;4.00;99.90
46458;DHT22;32155;54.076;12.092;2023-12-22T15:42:04;4.10;99.90
46458;DHT22;32155;54.076;12.092;2023-12-22T15:44:29;4.20;99.90
46458;DHT22;32155;54.076;12.092;2023-12-22T15:46:55;4.30;99.90
46458;DHT22;32155;54.076;12.092;2023-12-22T15:49:20;4.30;99.90
46458;DHT22;32155;54.076;12.092;2023-12-22T15:51:46;4.40;99.90
46458;DHT22;32155;54.076;12.092;2023-12-22T15:54:12;4.50;99.90
46458;DHT22;32155;54.076;12.092;2023-12-22T15:56:37;4.50;99.90
46458;DHT22;32155;54.076;12.092;2023-12-22T15:59:03;4.40;99.90
46458;DHT22;32155;54.076;12.092;2023-12-22T16:01:28;4.40;99.90
46458;DHT22;32155;54.076;12.092;2023-12-22T16:03:54;4.30;99.90
46458;DHT22;32155;54.076;12.092;2023-12-22T16:06:19;4.30;99.90
46458;DHT22;32155;54.076;12.092;2023-12-22T16:08:45;4.10;99.90
46458;DHT22;32155;54.076;12.092;2023-12-22T16:11:10;4.00;99.90
46458;DHT22;32155;54.076;12.092;2023-12-22T16:13:36;4.00;99.90
46458;DHT22;32155;54.076;12.092;2023-12-22T16:16:02;3.90;99.90
46458;DHT22;32155;54.076;12.092;2023-12-22T16:18:27;3.90;99.90
46458;DHT22;32155;54.076;12.092;2023-12-22T16:20:53;3.90;99.90
46458;DHT22;32155;54.076;12.092;2023-12-22T16:23:19;3.90;99.90
46458;DHT22;32155;54.076;12.092;2023-12-22T16:25:51;3.80;99.90
46458;DHT22;32155;54.076;12.092;2023-12-22T16:28:20;3.90;99.90
46458;DHT22;32155;54.076;12.092;2023-12-22T16:30:46;3.90;99.90
46458;DHT22;32155;54.076;12.092;2023-12-22T16:33:15;3.90;99.90
46458;DHT22;32155;54.076;12.092;2023-12-22T16:35:42;3.90;99.90
46458;DHT22;32155;54.076;12.092;2023-12-22T16:38:08;3.90;99.90
46458;DHT22;32155;54.076;12.092;2023-12-22T16:40:33;3.90;99.90
46458;DHT22;32155;54.076;12.092;2023-12-22T16:42:59;3.90;99.90
46458;DHT22;32155;54.076;12.092;2023-12-22T16:45:25;3.80;99.90
46458;DHT22;32155;54.076;12.092;2023-12-22T16:47:51;3.80;99.90
46458;DHT22;32155;54.076;12.092;2023-12-22T16:50:16;3.70;99.90
46458;DHT22;32155;54.076;12.092;2023-12-22T16:52:42;3.60;99.90
46458;DHT22;32155;54.076;12.092;2023-12-22T16:55:08;3.60;99.90
46458;DHT22;32155;54.076;12.092;2023-12-22T16:57:33;3.50;99.90
46458;DHT22;32155;54.076;12.092;2023-12-22T17:00:02;3.50;99.90
46458;DHT22;32155;54.076;12.092;2023-12-22T17:02:27;3.40;99.90
46458;DHT22;32155;54.076;12.092;2023-12-22T17:04:53;3.40;99.90
46458;DHT22;32155;54.076;12.092;2023-12-22T17:07:18;3.50;99.90
46458;DHT22;32155;54.076;12.092;2023-12-22T17:09:47;3.40;99.90
46458;DHT22;32155;54.076;12.092;2023-12-22T17:12:12;3.50;99.90
46458;DHT22;32155;54.076;12.092;2023-12-22T17:14:38;3.40;99.90
46458;DHT22;32155;54.076;12.092;2023-12-22T17:17:04;3.40;99.90
46458;DHT22;32155;54.076;12.092;2023-12-22T17:19:32;3.40;99.90
46458;DHT22;32155;54.076;12.092;2023-12-22T17:21:57;3.40;99.90
46458;DHT22;32155;54.076;12.092;2023-12-22T17:24:23;3.40;99.90
46458;DHT22;32155;54.076;12.092;2023-12-22T17:26:48;3.40;99.90
46458;DHT22;32155;54.076;12.092;2023-12-22T17:29:16;3.50;99.90
46458;DHT22;32155;54.076;12.092;2023-12-22T17:31:44;3.50;99.90
46458;DHT22;32155;54.076;12.092;2023-12-22T17:34:09;3.40;99.90
46458;DHT22;32155;54.076;12.092;2023-12-22T17:36:35;3.50;99.90
46458;DHT22;32155;54.076;12.092;2023-12-22T17:39:00;3.40;99.90
46458;DHT22;32155;54.076;12.092;2023-12-22T17:41:35;3.40;99.90
46458;DHT22;32155;54.076;12.092;2023-12-22T17:44:00;3.40;99.90
46458;DHT22;32155;54.076;12.092;2023-12-22T17:46:28;3.30;99.90
46458;DHT22;32155;54.076;12.092;2023-12-22T17:48:54;3.30;99.90
46458;DHT22;32155;54.076;12.092;2023-12-22T17:51:19;3.40;99.90
46458;DHT22;32155;54.076;12.092;2023-12-22T17:53:45;3.50;99.90
46458;DHT22;32155;54.076;12.092;2023-12-22T17:56:10;3.50;99.90
46458;DHT22;32155;54.076;12.092;2023-12-22T17:58:36;3.50;99.90
46458;DHT22;32155;54.076;12.092;2023-12-22T18:01:04;3.60;99.90
46458;DHT22;32155;54.076;12.092;2023-12-22T18:03:29;3.60;99.90
46458;DHT22;32155;54.076;12.092;2023-12-22T18:05:55;3.60;99.90
46458;DHT22;32155;54.076;12.092;2023-12-22T18:08:20;3.60;99.90
46458;DHT22;32155;54.076;12.092;2023-12-22T18:10:46;3.50;99.90
46458;DHT22;32155;54.076;12.092;2023-12-22T18:13:11;3.60;99.90
46458;DHT22;32155;54.076;12.092;2023-12-22T18:15:37;3.60;99.90
46458;DHT22;32155;54.076;12.092;2023-12-22T18:18:02;3.60;99.90
46458;DHT22;32155;54.076;12.092;2023-12-22T18:20:28;3.70;99.90
46458;DHT22;32155;54.076;12.092;2023-12-22T18:22:53;3.60;99.90
46458;DHT22;32155;54.076;12.092;2023-12-22T18:25:21;3.60;99.90
46458;DHT22;32155;54.076;12.092;2023-12-22T18:27:47;3.60;99.90
46458;DHT22;32155;54.076;12.092;2023-12-22T18:30:12;3.40;99.90
46458;DHT22;32155;54.076;12.092;2023-12-22T18:32:38;3.50;99.90
46458;DHT22;32155;54.076;12.092;2023-12-22T18:35:04;3.40;99.90
46458;DHT22;32155;54.076;12.092;2023-12-22T18:37:30;3.50;99.90
46458;DHT22;32155;54.076;12.092;2023-12-22T18:39:58;3.40;99.90
46458;DHT22;32155;54.076;12.092;2023-12-22T18:42:23;3.40;99.90
46458;DHT22;32155;54.076;12.092;2023-12-22T18:44:49;3.50;99.90
46458;DHT22;32155;54.076;12.092;2023-12-22T18:47:17;3.50;99.90
46458;DHT22;32155;54.076;12.092;2023-12-22T18:49:43;3.50;99.90
46458;DHT22;32155;54.076;12.092;2023-12-22T18:52:08;3.50;99.90
46458;DHT22;32155;54.076;12.092;2023-12-22T18:54:34;3.60;99.90
46458;DHT22;32155;54.076;12.092;2023-12-22T18:57:00;3.60;99.90
46458;DHT22;32155;54.076;12.092;2023-12-22T18:59:25;3.80;99.90
46458;DHT22;32155;54.076;12.092;2023-12-22T19:01:51;3.80;99.90
46458;DHT22;32155;54.076;12.092;2023-12-22T19:04:16;3.80;99.90
46458;DHT22;32155;54.076;12.092;2023-12-22T19:06:42;3.90;99.90
46458;DHT22;32155;54.076;12.092;2023-12-22T19:09:09;3.90;99.90
46458;DHT22;32155;54.076;12.092;2023-12-22T19:11:35;3.90;99.90
46458;DHT22;32155;54.076;12.092;2023-12-22T19:14:00;3.90;99.90
46458;DHT22;32155;54.076;12.092;2023-12-22T19:16:26;4.00;99.90
46458;DHT22;32155;54.076;12.092;2023-12-22T19:18:51;4.00;99.90
46458;DHT22;32155;54.076;12.092;2023-12-22T19:21:20;4.00;99.90
46458;DHT22;32155;54.076;12.092;2023-12-22T19:23:45;4.00;99.90
46458;DHT22;32155;54.076;12.092;2023-12-22T19:26:11;4.10;99.90
46458;DHT22;32155;54.076;12.092;2023-12-22T20:11:22;4.10;99.90
46458;DHT22;32155;54.076;12.092;2023-12-22T20:13:51;4.00;99.90